sensor_id;sensor_type;location;lat;lon;timestamp;pressure;altitude;pressure_sealevel;temperature;humidity
80164;BME280;70071;55.130;61.268;2023-05-19T00:01:34;99239.78;;;15.41;27.18
80164;BME280;70071;55.130;61.268;2023-05-19T00:04:02;99242.66;;;15.40;27.31
80164;BME280;70071;55.130;61.268;2023-05-19T00:06:31;99251.53;;;15.34;27.45
80164;BME280;70071;55.130;61.268;2023-05-19T00:09:02;99250.47;;;15.35;27.63
80164;BME280;70071;55.130;61.268;2023-05-19T00:11:28;99244.97;;;15.23;27.78
80164;BME280;70071;55.130;61.268;2023-05-19T00:13:57;99254.63;;;15.31;27.73
80164;BME280;70071;55.130;61.268;2023-05-19T00:16:24;99249.25;;;15.31;27.76
80164;BME280;70071;55.130;61.268;2023-05-19T00:18:50;99255.03;;;15.27;27.49
80164;BME280;70071;55.130;61.268;2023-05-19T00:21:18;99256.25;;;15.25;27.35
80164;BME280;70071;55.130;61.268;2023-05-19T00:23:44;99254.81;;;15.22;27.70
80164;BME280;70071;55.130;61.268;2023-05-19T00:26:10;99263.03;;;15.21;28.16
80164;BME280;70071;55.130;61.268;2023-05-19T00:28:36;99246.81;;;15.16;28.07
80164;BME280;70071;55.130;61.268;2023-05-19T00:31:04;99257.91;;;15.19;27.33
80164;BME280;70071;55.130;61.268;2023-05-19T00:33:30;99266.13;;;15.18;27.91
80164;BME280;70071;55.130;61.268;2023-05-19T00:35:59;99275.81;;;15.19;27.77
80164;BME280;70071;55.130;61.268;2023-05-19T00:38:28;99267.16;;;15.17;27.67
80164;BME280;70071;55.130;61.268;2023-05-19T00:40:53;99270.03;;;15.35;27.87
80164;BME280;70071;55.130;61.268;2023-05-19T00:43:19;99267.78;;;15.19;27.65
80164;BME280;70071;55.130;61.268;2023-05-19T00:45:46;99266.16;;;15.11;28.07
80164;BME280;70071;55.130;61.268;2023-05-19T00:48:11;99276.22;;;15.16;28.26
80164;BME280;70071;55.130;61.268;2023-05-19T00:50:37;99278.03;;;15.15;27.78
80164;BME280;70071;55.130;61.268;2023-05-19T00:53:04;99283.59;;;15.14;28.30
80164;BME280;70071;55.130;61.268;2023-05-19T00:55:31;99279.69;;;15.16;28.55
80164;BME280;70071;55.130;61.268;2023-05-19T00:57:58;99285.03;;;15.16;28.11
80164;BME280;70071;55.130;61.268;2023-05-19T01:00:24;99273.53;;;15.09;28.30
80164;BME280;70071;55.130;61.268;2023-05-19T01:02:50;99284.84;;;15.11;28.32
80164;BME280;70071;55.130;61.268;2023-05-19T01:05:16;99268.38;;;15.07;28.07
80164;BME280;70071;55.130;61.268;2023-05-19T01:07:42;99276.19;;;15.09;27.89
80164;BME280;70071;55.130;61.268;2023-05-19T01:10:09;99286.69;;;15.17;28.32
80164;BME280;70071;55.130;61.268;2023-05-19T01:12:35;99285.25;;;15.15;28.33
80164;BME280;70071;55.130;61.268;2023-05-19T01:15:02;99276.81;;;15.18;28.56
80164;BME280;70071;55.130;61.268;2023-05-19T01:17:44;99282.81;;;15.20;29.02
80164;BME280;70071;55.130;61.268;2023-05-19T01:20:19;99279.50;;;15.24;28.59
80164;BME280;70071;55.130;61.268;2023-05-19T01:26:23;99294.91;;;15.29;28.47
80164;BME280;70071;55.130;61.268;2023-05-19T01:31:45;99277.66;;;15.25;28.81
80164;BME280;70071;55.130;61.268;2023-05-19T01:34:13;99285.47;;;15.26;29.08
80164;BME280;70071;55.130;61.268;2023-05-19T01:36:41;99294.50;;;15.25;28.81
80164;BME280;70071;55.130;61.268;2023-05-19T01:39:09;99292.03;;;15.24;28.42
80164;BME280;70071;55.130;61.268;2023-05-19T01:41:37;99298.19;;;15.31;28.76
80164;BME280;70071;55.130;61.268;2023-05-19T01:44:06;99290.59;;;15.28;28.41
80164;BME280;70071;55.130;61.268;2023-05-19T01:46:33;99295.72;;;15.43;28.43
80164;BME280;70071;55.130;61.268;2023-05-19T01:48:58;99300.88;;;15.44;28.28
80164;BME280;70071;55.130;61.268;2023-05-19T01:51:24;99288.31;;;15.32;28.46
80164;BME280;70071;55.130;61.268;2023-05-19T01:53:50;99289.75;;;15.34;28.67
80164;BME280;70071;55.130;61.268;2023-05-19T01:56:37;99303.09;;;15.54;28.56
80164;BME280;70071;55.130;61.268;2023-05-19T01:59:17;99300.22;;;15.49;29.01
80164;BME280;70071;55.130;61.268;2023-05-19T02:01:51;99296.53;;;15.50;28.85
80164;BME280;70071;55.130;61.268;2023-05-19T02:07:08;99306.59;;;15.61;28.58
80164;BME280;70071;55.130;61.268;2023-05-19T02:09:42;99312.31;;;15.65;28.07
80164;BME280;70071;55.130;61.268;2023-05-19T02:12:30;99294.88;;;15.62;28.18
80164;BME280;70071;55.130;61.268;2023-05-19T02:15:10;99298.75;;;15.67;28.40
80164;BME280;70071;55.130;61.268;2023-05-19T02:17:44;99289.50;;;15.62;29.09
80164;BME280;70071;55.130;61.268;2023-05-19T02:20:40;99290.94;;;15.72;28.61
80164;BME280;70071;55.130;61.268;2023-05-19T02:23:07;99284.56;;;15.66;28.56
80164;BME280;70071;55.130;61.268;2023-05-19T02:25:33;99291.94;;;15.71;28.29
80164;BME280;70071;55.130;61.268;2023-05-19T02:27:59;99303.06;;;15.81;28.69
80164;BME280;70071;55.130;61.268;2023-05-19T02:30:25;99306.97;;;15.85;28.51
80164;BME280;70071;55.130;61.268;2023-05-19T02:32:51;99302.44;;;15.79;28.60
80164;BME280;70071;55.130;61.268;2023-05-19T02:35:19;99300.34;;;15.88;28.26
80164;BME280;70071;55.130;61.268;2023-05-19T02:37:45;99295.44;;;15.85;28.50
80164;BME280;70071;55.130;61.268;2023-05-19T02:40:11;99292.31;;;15.88;28.16
80164;BME280;70071;55.130;61.268;2023-05-19T02:42:37;99297.25;;;15.97;28.58
80164;BME280;70071;55.130;61.268;2023-05-19T02:45:03;99306.47;;;16.02;28.35
80164;BME280;70071;55.130;61.268;2023-05-19T02:47:31;99292.09;;;15.96;29.02
80164;BME280;70071;55.130;61.268;2023-05-19T02:49:56;99309.56;;;16.05;29.02
80164;BME280;70071;55.130;61.268;2023-05-19T02:52:22;99296.19;;;16.05;28.40
80164;BME280;70071;55.130;61.268;2023-05-19T02:54:48;99300.47;;;16.13;28.56
80164;BME280;70071;55.130;61.268;2023-05-19T02:57:14;99294.69;;;16.16;27.94
80164;BME280;70071;55.130;61.268;2023-05-19T02:59:40;99295.72;;;16.15;28.73
80164;BME280;70071;55.130;61.268;2023-05-19T03:02:07;99299.63;;;16.19;28.81
80164;BME280;70071;55.130;61.268;2023-05-19T03:04:33;99299.19;;;16.22;28.52
80164;BME280;70071;55.130;61.268;2023-05-19T03:07:06;99305.13;;;16.31;28.56
80164;BME280;70071;55.130;61.268;2023-05-19T03:09:36;99288.88;;;16.26;28.86
80164;BME280;70071;55.130;61.268;2023-05-19T03:12:02;99304.06;;;16.39;28.73
80164;BME280;70071;55.130;61.268;2023-05-19T03:14:29;99302.78;;;16.41;28.77
80164;BME280;70071;55.130;61.268;2023-05-19T03:16:55;99292.50;;;16.38;28.41
80164;BME280;70071;55.130;61.268;2023-05-19T03:19:21;99295.16;;;16.45;28.54
80164;BME280;70071;55.130;61.268;2023-05-19T03:21:46;99292.88;;;16.48;28.47
80164;BME280;70071;55.130;61.268;2023-05-19T03:24:13;99292.22;;;16.53;28.87
80164;BME280;70071;55.130;61.268;2023-05-19T03:26:38;99301.84;;;16.61;28.76
80164;BME280;70071;55.130;61.268;2023-05-19T03:29:04;99295.03;;;16.65;28.77
80164;BME280;70071;55.130;61.268;2023-05-19T03:31:30;99296.47;;;16.67;28.53
80164;BME280;70071;55.130;61.268;2023-05-19T03:33:56;99294.81;;;16.66;28.93
80164;BME280;70071;55.130;61.268;2023-05-19T03:36:22;99298.06;;;16.75;28.77
80164;BME280;70071;55.130;61.268;2023-05-19T03:38:48;99306.66;;;16.84;29.63
80164;BME280;70071;55.130;61.268;2023-05-19T03:41:14;99295.38;;;16.75;29.39
80164;BME280;70071;55.130;61.268;2023-05-19T03:43:40;99293.69;;;16.81;29.34
80164;BME280;70071;55.130;61.268;2023-05-19T03:46:06;99286.03;;;16.84;28.97
80164;BME280;70071;55.130;61.268;2023-05-19T03:48:32;99282.53;;;16.84;29.74
80164;BME280;70071;55.130;61.268;2023-05-19T03:50:58;99290.78;;;16.89;30.48
80164;BME280;70071;55.130;61.268;2023-05-19T03:53:24;99288.91;;;16.90;30.10
80164;BME280;70071;55.130;61.268;2023-05-19T03:55:50;99290.56;;;16.91;30.41
80164;BME280;70071;55.130;61.268;2023-05-19T03:58:16;99298.09;;;17.00;30.50
80164;BME280;70071;55.130;61.268;2023-05-19T04:00:43;99299.03;;;17.13;30.58
80164;BME280;70071;55.130;61.268;2023-05-19T04:03:09;99285.25;;;17.09;31.00
80164;BME280;70071;55.130;61.268;2023-05-19T04:05:35;99288.63;;;17.23;30.26
80164;BME280;70071;55.130;61.268;2023-05-19T04:08:01;99298.69;;;17.28;30.69
80164;BME280;70071;55.130;61.268;2023-05-19T04:10:27;99286.66;;;17.37;30.36
80164;BME280;70071;55.130;61.268;2023-05-19T04:12:52;99284.13;;;17.42;30.35
80164;BME280;70071;55.130;61.268;2023-05-19T04:15:18;99292.53;;;17.46;31.12
80164;BME280;70071;55.130;61.268;2023-05-19T04:17:44;99296.97;;;17.58;30.70
80164;BME280;70071;55.130;61.268;2023-05-19T04:20:11;99300.31;;;17.72;30.02
80164;BME280;70071;55.130;61.268;2023-05-19T04:22:36;99289.44;;;17.67;30.37
80164;BME280;70071;55.130;61.268;2023-05-19T04:25:03;99296.59;;;17.73;30.92
80164;BME280;70071;55.130;61.268;2023-05-19T04:35:10;99277.94;;;17.79;31.39
80164;BME280;70071;55.130;61.268;2023-05-19T04:37:43;99301.91;;;17.99;31.88
80164;BME280;70071;55.130;61.268;2023-05-19T04:40:33;99252.59;;;17.74;31.60
80164;BME280;70071;55.130;61.268;2023-05-19T04:43:02;99311.91;;;18.10;31.59
80164;BME280;70071;55.130;61.268;2023-05-19T04:45:28;99300.47;;;18.15;31.61
80164;BME280;70071;55.130;61.268;2023-05-19T04:51:22;99328.16;;;18.45;31.37
80164;BME280;70071;55.130;61.268;2023-05-19T04:53:56;99314.59;;;18.40;31.42
80164;BME280;70071;55.130;61.268;2023-05-19T04:56:30;99297.19;;;18.43;30.67
80164;BME280;70071;55.130;61.268;2023-05-19T04:58:56;99325.41;;;18.64;30.88
80164;BME280;70071;55.130;61.268;2023-05-19T05:01:22;99316.63;;;18.57;31.00
80164;BME280;70071;55.130;61.268;2023-05-19T05:04:15;99330.25;;;18.74;31.55
80164;BME280;70071;55.130;61.268;2023-05-19T05:06:43;99308.94;;;18.60;30.93
80164;BME280;70071;55.130;61.268;2023-05-19T05:09:13;99295.59;;;18.54;31.08
80164;BME280;70071;55.130;61.268;2023-05-19T05:11:43;99325.31;;;18.89;30.78
80164;BME280;70071;55.130;61.268;2023-05-19T05:14:12;99330.69;;;18.89;30.94
80164;BME280;70071;55.130;61.268;2023-05-19T05:16:48;99323.66;;;18.88;31.12
80164;BME280;70071;55.130;61.268;2023-05-19T05:19:14;99318.13;;;18.83;30.82
80164;BME280;70071;55.130;61.268;2023-05-19T05:21:40;99285.03;;;18.71;31.07
80164;BME280;70071;55.130;61.268;2023-05-19T05:24:07;99301.72;;;18.73;30.64
80164;BME280;70071;55.130;61.268;2023-05-19T05:26:34;99268.91;;;18.71;30.97
80164;BME280;70071;55.130;61.268;2023-05-19T05:29:01;99309.06;;;18.96;30.87
80164;BME280;70071;55.130;61.268;2023-05-19T05:31:27;99292.56;;;18.92;31.23
80164;BME280;70071;55.130;61.268;2023-05-19T05:33:53;99282.94;;;18.85;30.60
80164;BME280;70071;55.130;61.268;2023-05-19T05:36:19;99308.25;;;19.07;30.45
80164;BME280;70071;55.130;61.268;2023-05-19T05:38:45;99288.94;;;18.98;30.13
80164;BME280;70071;55.130;61.268;2023-05-19T05:41:11;99303.56;;;19.14;30.23
80164;BME280;70071;55.130;61.268;2023-05-19T05:43:37;99314.00;;;19.34;30.12
80164;BME280;70071;55.130;61.268;2023-05-19T05:46:03;99298.56;;;19.30;30.18
80164;BME280;70071;55.130;61.268;2023-05-19T05:48:32;99255.84;;;19.22;29.83
80164;BME280;70071;55.130;61.268;2023-05-19T05:50:58;99300.19;;;19.55;29.45
80164;BME280;70071;55.130;61.268;2023-05-19T05:53:25;99298.44;;;19.60;29.66
80164;BME280;70071;55.130;61.268;2023-05-19T05:55:54;99291.41;;;19.59;29.39
80164;BME280;70071;55.130;61.268;2023-05-19T05:58:24;99276.06;;;19.60;29.41
80164;BME280;70071;55.130;61.268;2023-05-19T06:00:50;99279.94;;;19.64;30.07
80164;BME280;70071;55.130;61.268;2023-05-19T06:03:17;99252.44;;;19.50;29.45
80164;BME280;70071;55.130;61.268;2023-05-19T06:05:48;99281.44;;;19.71;29.24
80164;BME280;70071;55.130;61.268;2023-05-19T06:08:14;99282.50;;;19.82;28.93
80164;BME280;70071;55.130;61.268;2023-05-19T06:10:46;99289.28;;;19.97;28.83
80164;BME280;70071;55.130;61.268;2023-05-19T06:13:12;99291.84;;;19.92;28.94
80164;BME280;70071;55.130;61.268;2023-05-19T06:15:40;99299.09;;;20.03;28.89
80164;BME280;70071;55.130;61.268;2023-05-19T06:18:06;99301.50;;;20.16;29.13
80164;BME280;70071;55.130;61.268;2023-05-19T06:20:32;99290.13;;;20.14;28.86
80164;BME280;70071;55.130;61.268;2023-05-19T06:22:59;99268.72;;;20.08;29.17
80164;BME280;70071;55.130;61.268;2023-05-19T06:25:25;99284.94;;;20.24;28.88
80164;BME280;70071;55.130;61.268;2023-05-19T06:27:51;99307.34;;;20.42;28.72
80164;BME280;70071;55.130;61.268;2023-05-19T06:30:17;99289.56;;;20.41;28.71
80164;BME280;70071;55.130;61.268;2023-05-19T06:32:43;99292.94;;;20.48;28.33
80164;BME280;70071;55.130;61.268;2023-05-19T06:35:09;99281.75;;;20.56;27.94
80164;BME280;70071;55.130;61.268;2023-05-19T06:37:36;99292.75;;;20.67;27.85
80164;BME280;70071;55.130;61.268;2023-05-19T06:40:10;99261.59;;;20.59;27.99
80164;BME280;70071;55.130;61.268;2023-05-19T06:42:39;99304.38;;;20.84;28.02
80164;BME280;70071;55.130;61.268;2023-05-19T06:45:06;99303.38;;;20.90;27.52
80164;BME280;70071;55.130;61.268;2023-05-19T06:47:35;99265.38;;;20.75;27.74
80164;BME280;70071;55.130;61.268;2023-05-19T06:50:01;99272.59;;;20.86;27.58
80164;BME280;70071;55.130;61.268;2023-05-19T06:52:30;99272.00;;;21.01;27.81
80164;BME280;70071;55.130;61.268;2023-05-19T06:54:56;99262.94;;;21.07;27.32
80164;BME280;70071;55.130;61.268;2023-05-19T06:57:22;99267.59;;;21.12;27.40
80164;BME280;70071;55.130;61.268;2023-05-19T06:59:47;99280.38;;;21.39;26.94
80164;BME280;70071;55.130;61.268;2023-05-19T07:02:13;99285.78;;;21.39;26.36
80164;BME280;70071;55.130;61.268;2023-05-19T07:04:39;99277.63;;;21.34;26.27
80164;BME280;70071;55.130;61.268;2023-05-19T07:07:05;99282.22;;;21.50;26.16
80164;BME280;70071;55.130;61.268;2023-05-19T07:09:31;99251.53;;;21.39;25.96
80164;BME280;70071;55.130;61.268;2023-05-19T07:11:57;99270.31;;;21.51;26.10
80164;BME280;70071;55.130;61.268;2023-05-19T07:14:23;99276.38;;;21.58;25.79
80164;BME280;70071;55.130;61.268;2023-05-19T07:16:49;99272.53;;;21.54;25.97
80164;BME280;70071;55.130;61.268;2023-05-19T07:19:15;99279.38;;;21.62;25.82
80164;BME280;70071;55.130;61.268;2023-05-19T07:21:44;99279.38;;;21.62;25.52
80164;BME280;70071;55.130;61.268;2023-05-19T07:24:10;99284.84;;;21.67;25.53
80164;BME280;70071;55.130;61.268;2023-05-19T07:26:36;99275.06;;;21.61;24.95
80164;BME280;70071;55.130;61.268;2023-05-19T07:29:02;99271.41;;;21.72;24.75
80164;BME280;70071;55.130;61.268;2023-05-19T07:31:28;99245.91;;;21.63;25.20
80164;BME280;70071;55.130;61.268;2023-05-19T07:33:57;99219.03;;;21.51;25.08
80164;BME280;70071;55.130;61.268;2023-05-19T07:36:23;99272.78;;;21.97;24.39
80164;BME280;70071;55.130;61.268;2023-05-19T07:38:53;99285.22;;;21.98;23.60
80164;BME280;70071;55.130;61.268;2023-05-19T07:41:19;99240.13;;;21.76;23.50
80164;BME280;70071;55.130;61.268;2023-05-19T07:43:46;99267.19;;;22.04;23.79
80164;BME280;70071;55.130;61.268;2023-05-19T07:46:13;99267.63;;;22.17;23.68
80164;BME280;70071;55.130;61.268;2023-05-19T07:48:39;99268.94;;;22.15;23.53
80164;BME280;70071;55.130;61.268;2023-05-19T07:51:05;99249.16;;;22.09;23.44
80164;BME280;70071;55.130;61.268;2023-05-19T07:53:35;99255.41;;;22.15;22.85
80164;BME280;70071;55.130;61.268;2023-05-19T07:56:01;99265.28;;;22.26;23.10
80164;BME280;70071;55.130;61.268;2023-05-19T07:58:27;99251.09;;;22.14;22.97
80164;BME280;70071;55.130;61.268;2023-05-19T08:00:56;99266.91;;;22.27;23.08
80164;BME280;70071;55.130;61.268;2023-05-19T08:03:23;99258.09;;;22.32;22.33
80164;BME280;70071;55.130;61.268;2023-05-19T08:05:49;99260.06;;;22.42;22.44
80164;BME280;70071;55.130;61.268;2023-05-19T08:08:15;99256.28;;;22.43;22.23
80164;BME280;70071;55.130;61.268;2023-05-19T08:10:45;99262.25;;;22.45;22.16
80164;BME280;70071;55.130;61.268;2023-05-19T08:13:11;99260.41;;;22.50;22.07
80164;BME280;70071;55.130;61.268;2023-05-19T08:15:38;99259.91;;;22.53;21.95
80164;BME280;70071;55.130;61.268;2023-05-19T08:18:04;99255.03;;;22.56;22.28
80164;BME280;70071;55.130;61.268;2023-05-19T08:20:30;99252.34;;;22.56;22.07
80164;BME280;70071;55.130;61.268;2023-05-19T08:22:57;99254.81;;;22.62;22.20
80164;BME280;70071;55.130;61.268;2023-05-19T08:25:23;99250.50;;;22.61;22.08
80164;BME280;70071;55.130;61.268;2023-05-19T08:27:49;99251.69;;;22.76;22.00
80164;BME280;70071;55.130;61.268;2023-05-19T08:30:15;99242.47;;;22.71;21.74
80164;BME280;70071;55.130;61.268;2023-05-19T08:32:41;99250.88;;;22.75;20.92
80164;BME280;70071;55.130;61.268;2023-05-19T08:35:07;99246.28;;;22.76;20.76
80164;BME280;70071;55.130;61.268;2023-05-19T08:37:33;99248.53;;;22.84;21.09
80164;BME280;70071;55.130;61.268;2023-05-19T08:40:02;99260.19;;;22.89;21.34
80164;BME280;70071;55.130;61.268;2023-05-19T08:42:31;99253.97;;;22.89;20.88
80164;BME280;70071;55.130;61.268;2023-05-19T08:45:01;99242.38;;;22.94;21.56
80164;BME280;70071;55.130;61.268;2023-05-19T08:47:31;99257.31;;;23.01;21.36
80164;BME280;70071;55.130;61.268;2023-05-19T08:50:05;99258.97;;;23.07;21.46
80164;BME280;70071;55.130;61.268;2023-05-19T08:52:48;99252.84;;;23.17;21.39
80164;BME280;70071;55.130;61.268;2023-05-19T08:55:34;99244.75;;;23.22;20.76
80164;BME280;70071;55.130;61.268;2023-05-19T08:58:02;99258.88;;;23.24;20.83
80164;BME280;70071;55.130;61.268;2023-05-19T09:00:29;99245.56;;;23.23;20.36
80164;BME280;70071;55.130;61.268;2023-05-19T09:02:55;99249.44;;;23.32;20.38
80164;BME280;70071;55.130;61.268;2023-05-19T09:05:22;99256.19;;;23.35;20.13
80164;BME280;70071;55.130;61.268;2023-05-19T09:07:48;99258.94;;;23.40;19.83
80164;BME280;70071;55.130;61.268;2023-05-19T09:10:14;99263.59;;;23.50;19.91
80164;BME280;70071;55.130;61.268;2023-05-19T09:12:45;99259.03;;;23.55;19.72
80164;BME280;70071;55.130;61.268;2023-05-19T09:15:15;99271.25;;;23.58;19.79
80164;BME280;70071;55.130;61.268;2023-05-19T09:17:44;99269.34;;;23.58;19.95
80164;BME280;70071;55.130;61.268;2023-05-19T09:20:13;99264.44;;;23.55;19.85
80164;BME280;70071;55.130;61.268;2023-05-19T09:22:45;99278.00;;;23.60;19.78
80164;BME280;70071;55.130;61.268;2023-05-19T09:25:19;99270.66;;;23.51;19.54
80164;BME280;70071;55.130;61.268;2023-05-19T09:27:46;99268.78;;;23.56;19.71
80164;BME280;70071;55.130;61.268;2023-05-19T09:30:15;99274.97;;;23.52;19.61
80164;BME280;70071;55.130;61.268;2023-05-19T09:32:41;99273.03;;;23.47;19.30
80164;BME280;70071;55.130;61.268;2023-05-19T09:35:08;99278.72;;;23.46;19.66
80164;BME280;70071;55.130;61.268;2023-05-19T09:37:34;99282.75;;;23.38;19.98
80164;BME280;70071;55.130;61.268;2023-05-19T09:40:00;99285.69;;;23.31;20.16
80164;BME280;70071;55.130;61.268;2023-05-19T09:42:26;99292.50;;;23.34;20.27
80164;BME280;70071;55.130;61.268;2023-05-19T09:44:58;99283.00;;;23.36;19.75
80164;BME280;70071;55.130;61.268;2023-05-19T09:47:25;99289.72;;;23.29;20.15
80164;BME280;70071;55.130;61.268;2023-05-19T09:49:52;99277.47;;;23.16;19.92
80164;BME280;70071;55.130;61.268;2023-05-19T09:52:19;99286.16;;;23.18;20.15
80164;BME280;70071;55.130;61.268;2023-05-19T09:54:47;99276.84;;;23.09;20.10
80164;BME280;70071;55.130;61.268;2023-05-19T09:57:13;99263.28;;;23.03;20.01
80164;BME280;70071;55.130;61.268;2023-05-19T09:59:39;99279.06;;;23.12;19.77
80164;BME280;70071;55.130;61.268;2023-05-19T10:02:14;99269.25;;;23.05;20.05
80164;BME280;70071;55.130;61.268;2023-05-19T10:04:41;99268.66;;;22.98;19.87
80164;BME280;70071;55.130;61.268;2023-05-19T10:07:09;99266.78;;;22.99;19.84
80164;BME280;70071;55.130;61.268;2023-05-19T10:09:37;99258.66;;;22.99;20.49
80164;BME280;70071;55.130;61.268;2023-05-19T10:12:04;99263.28;;;23.03;19.95
80164;BME280;70071;55.130;61.268;2023-05-19T10:14:31;99254.91;;;23.05;20.35
80164;BME280;70071;55.130;61.268;2023-05-19T10:16:57;99262.28;;;23.10;20.27
80164;BME280;70071;55.130;61.268;2023-05-19T10:19:26;99250.94;;;23.18;19.85
80164;BME280;70071;55.130;61.268;2023-05-19T10:21:52;99249.56;;;23.15;19.67
80164;BME280;70071;55.130;61.268;2023-05-19T10:24:19;99250.97;;;23.23;19.45
80164;BME280;70071;55.130;61.268;2023-05-19T10:27:07;99252.16;;;23.37;19.65
80164;BME280;70071;55.130;61.268;2023-05-19T10:29:38;99251.03;;;23.33;19.59
80164;BME280;70071;55.130;61.268;2023-05-19T10:32:10;99233.47;;;23.36;19.60
80164;BME280;70071;55.130;61.268;2023-05-19T10:44:19;99238.22;;;23.71;18.59
80164;BME280;70071;55.130;61.268;2023-05-19T10:46:46;99228.19;;;23.67;19.45
80164;BME280;70071;55.130;61.268;2023-05-19T10:49:19;99238.53;;;23.75;19.12
80164;BME280;70071;55.130;61.268;2023-05-19T10:51:46;99222.50;;;23.68;19.44
80164;BME280;70071;55.130;61.268;2023-05-19T10:54:12;99233.09;;;23.75;19.54
80164;BME280;70071;55.130;61.268;2023-05-19T10:56:42;99233.38;;;23.78;19.26
80164;BME280;70071;55.130;61.268;2023-05-19T10:59:31;99229.63;;;23.85;19.66
80164;BME280;70071;55.130;61.268;2023-05-19T11:02:02;99224.22;;;23.85;19.00
80164;BME280;70071;55.130;61.268;2023-05-19T11:04:48;99228.56;;;23.91;19.38
80164;BME280;70071;55.130;61.268;2023-05-19T11:07:20;99190.78;;;23.64;18.47
80164;BME280;70071;55.130;61.268;2023-05-19T11:09:50;99212.50;;;23.79;19.13
80164;BME280;70071;55.130;61.268;2023-05-19T11:12:21;99232.84;;;23.82;19.10
80164;BME280;70071;55.130;61.268;2023-05-19T11:14:51;99211.41;;;23.70;19.08
80164;BME280;70071;55.130;61.268;2023-05-19T11:17:17;99223.06;;;23.70;18.77
80164;BME280;70071;55.130;61.268;2023-05-19T11:19:53;99186.97;;;23.54;18.39
80164;BME280;70071;55.130;61.268;2023-05-19T11:22:25;99195.66;;;23.56;18.34
80164;BME280;70071;55.130;61.268;2023-05-19T11:24:53;99189.41;;;23.51;18.11
80164;BME280;70071;55.130;61.268;2023-05-19T11:29:47;99216.53;;;23.61;18.47
80164;BME280;70071;55.130;61.268;2023-05-19T11:32:14;99209.97;;;23.52;18.62
80164;BME280;70071;55.130;61.268;2023-05-19T11:34:40;99204.53;;;23.52;18.42
80164;BME280;70071;55.130;61.268;2023-05-19T11:37:06;99202.38;;;23.49;18.82
80164;BME280;70071;55.130;61.268;2023-05-19T11:39:34;99195.88;;;23.50;19.01
80164;BME280;70071;55.130;61.268;2023-05-19T11:42:00;99196.69;;;23.50;18.69
80164;BME280;70071;55.130;61.268;2023-05-19T11:44:26;99170.34;;;23.30;18.56
80164;BME280;70071;55.130;61.268;2023-05-19T11:46:52;99204.53;;;23.52;18.38
80164;BME280;70071;55.130;61.268;2023-05-19T11:49:18;99193.97;;;23.45;18.25
80164;BME280;70071;55.130;61.268;2023-05-19T11:51:44;99180.63;;;23.28;18.38
80164;BME280;70071;55.130;61.268;2023-05-19T11:54:11;99177.63;;;23.24;18.32
80164;BME280;70071;55.130;61.268;2023-05-19T11:56:41;99212.41;;;23.48;18.68
80164;BME280;70071;55.130;61.268;2023-05-19T11:59:08;99193.66;;;23.36;18.65
80164;BME280;70071;55.130;61.268;2023-05-19T12:01:34;99212.66;;;23.41;18.42
80164;BME280;70071;55.130;61.268;2023-05-19T12:04:01;99206.09;;;23.32;18.62
80164;BME280;70071;55.130;61.268;2023-05-19T12:06:28;99190.34;;;23.24;18.53
80164;BME280;70071;55.130;61.268;2023-05-19T12:08:54;99203.94;;;23.34;18.85
80164;BME280;70071;55.130;61.268;2023-05-19T12:11:21;99211.00;;;23.40;18.89
80164;BME280;70071;55.130;61.268;2023-05-19T12:13:48;99204.78;;;23.40;19.18
80164;BME280;70071;55.130;61.268;2023-05-19T12:16:19;99161.03;;;23.11;19.10
80164;BME280;70071;55.130;61.268;2023-05-19T12:18:45;99200.69;;;23.32;19.11
80164;BME280;70071;55.130;61.268;2023-05-19T12:21:11;99211.00;;;23.35;19.20
80164;BME280;70071;55.130;61.268;2023-05-19T12:23:37;99207.53;;;23.50;18.96
80164;BME280;70071;55.130;61.268;2023-05-19T12:26:03;99188.69;;;23.23;19.33
80164;BME280;70071;55.130;61.268;2023-05-19T12:28:29;99197.94;;;23.27;18.83
80164;BME280;70071;55.130;61.268;2023-05-19T12:30:56;99186.53;;;23.20;19.44
80164;BME280;70071;55.130;61.268;2023-05-19T12:33:24;99199.25;;;23.19;19.00
80164;BME280;70071;55.130;61.268;2023-05-19T12:35:50;99187.06;;;23.17;18.77
80164;BME280;70071;55.130;61.268;2023-05-19T12:38:17;99201.78;;;23.36;18.72
80164;BME280;70071;55.130;61.268;2023-05-19T12:40:44;99188.16;;;23.16;19.29
80164;BME280;70071;55.130;61.268;2023-05-19T12:43:20;99202.81;;;23.25;19.43
80164;BME280;70071;55.130;61.268;2023-05-19T12:45:47;99198.13;;;23.10;18.99
80164;BME280;70071;55.130;61.268;2023-05-19T12:48:14;99204.06;;;23.12;19.96
80164;BME280;70071;55.130;61.268;2023-05-19T12:50:40;99194.28;;;23.06;19.49
80164;BME280;70071;55.130;61.268;2023-05-19T12:53:10;99197.81;;;23.06;20.07
80164;BME280;70071;55.130;61.268;2023-05-19T12:55:41;99191.53;;;23.01;20.07
80164;BME280;70071;55.130;61.268;2023-05-19T12:58:08;99212.19;;;23.12;20.05
80164;BME280;70071;55.130;61.268;2023-05-19T13:00:39;99210.06;;;23.14;19.67
80164;BME280;70071;55.130;61.268;2023-05-19T13:03:07;99192.00;;;22.87;19.54
80164;BME280;70071;55.130;61.268;2023-05-19T13:05:37;99183.63;;;22.89;19.23
80164;BME280;70071;55.130;61.268;2023-05-19T13:08:07;99193.91;;;22.87;19.73
80164;BME280;70071;55.130;61.268;2023-05-19T13:10:35;99185.47;;;22.83;19.29
80164;BME280;70071;55.130;61.268;2023-05-19T13:13:02;99211.00;;;22.98;19.56
80164;BME280;70071;55.130;61.268;2023-05-19T13:15:29;99208.25;;;22.93;19.21
80164;BME280;70071;55.130;61.268;2023-05-19T13:18:00;99193.56;;;22.78;19.42
80164;BME280;70071;55.130;61.268;2023-05-19T13:20:26;99179.16;;;22.67;20.02
80164;BME280;70071;55.130;61.268;2023-05-19T13:22:52;99206.59;;;22.86;19.77
80164;BME280;70071;55.130;61.268;2023-05-19T13:25:18;99215.03;;;22.95;19.86
80164;BME280;70071;55.130;61.268;2023-05-19T13:34:33;99220.00;;;23.03;19.59